Time;durP1;ratioP1;P1;durP2;ratioP2;P2;SDS_P1;SDS_P2;PMS_P1;PMS_P2;Temp;Humidity;BMP_temperature;BMP_pressure;BME280_temperature;BME280_humidity;BME280_pressure;Samples;Min_cycle;Max_cycle;Signal;HPM_P1;HPM_P2
2022/09/05 00:02:50;;;;;;;2.90;2.50;;;;;;;18.68;65.03;99803.78;4982771;28;20696;-72
2022/09/05 00:05:33;;;;;;;4.73;3.27;;;;;;;18.68;64.79;99805.59;4983780;28;20467;-72
2022/09/05 00:08:13;;;;;;;3.27;2.97;;;;;;;18.63;64.93;99806.03;4995265;28;20521;-73
2022/09/05 00:10:44;;;;;;;4.33;2.53;;;;;;;18.54;64.88;99798.94;4998479;28;20461;-73
2022/09/05 00:13:25;;;;;;;3.23;2.97;;;;;;;18.46;65.38;99794.31;5004668;28;20503;-72
2022/09/05 00:15:59;;;;;;;4.43;3.63;;;;;;;18.45;65.20;99794.50;5002090;28;20563;-72
2022/09/05 00:18:36;;;;;;;3.80;3.50;;;;;;;18.34;65.72;99787.50;5006595;28;20481;-73
2022/09/05 00:21:23;;;;;;;3.20;2.60;;;;;;;18.24;65.83;99787.50;5002814;28;20911;-72
2022/09/05 00:24:10;;;;;;;6.13;2.93;;;;;;;18.19;66.19;99787.09;4999505;28;20457;-75
2022/09/05 00:26:52;;;;;;;4.83;4.03;;;;;;;18.09;66.63;99788.91;5004541;28;20452;-74
2022/09/05 00:29:39;;;;;;;4.00;3.70;;;;;;;17.97;66.63;99792.72;5001774;28;20470;-75
2022/09/05 00:32:37;;;;;;;4.18;3.30;;;;;;;17.88;67.24;99784.63;5007401;28;20483;-75
2022/09/05 00:35:26;;;;;;;5.17;3.27;;;;;;;17.79;67.38;99782.78;5005738;28;20389;-75
2022/09/05 00:37:53;;;;;;;3.80;3.40;;;;;;;17.76;67.64;99783.03;5004486;28;20505;-75
2022/09/05 00:41:01;;;;;;;4.37;3.50;;;;;;;17.72;67.60;99784.31;5007476;28;20552;-75
2022/09/05 00:43:48;;;;;;;4.20;3.27;;;;;;;17.68;67.54;99780.22;4921128;29;20512;-75
2022/09/05 00:46:28;;;;;;;6.53;4.20;;;;;;;17.70;67.39;99789.75;4916978;29;20992;-75
2022/09/05 00:49:18;;;;;;;5.83;3.97;;;;;;;17.73;67.50;99791.28;4978934;28;20514;-75
2022/09/05 00:52:04;;;;;;;4.50;2.67;;;;;;;17.68;67.45;99785.53;4986214;28;20807;-75
2022/09/05 00:54:40;;;;;;;7.50;4.10;;;;;;;17.63;67.54;99782.47;5005792;28;20833;-75
2022/09/05 00:57:43;;;;;;;3.63;2.93;;;;;;;17.59;67.64;99781.06;5000064;28;20742;-75
2022/09/05 01:00:21;;;;;;;6.00;3.27;;;;;;;17.54;68.01;99788.63;5008899;28;20843;-75
2022/09/05 01:03:01;;;;;;;3.70;3.40;;;;;;;17.55;68.04;99787.63;5006179;28;20447;-75
2022/09/05 01:05:45;;;;;;;3.80;3.50;;;;;;;17.60;67.87;99785.41;5005857;28;20198;-75
2022/09/05 01:08:39;;;;;;;3.83;3.53;;;;;;;17.61;67.86;99787.94;5002942;28;20494;-76
2022/09/05 01:11:23;;;;;;;4.40;3.57;;;;;;;17.66;67.92;99793.66;5005406;28;20442;-77
2022/09/05 01:14:23;;;;;;;4.57;3.20;;;;;;;17.70;67.75;99803.03;5005321;28;20449;-76
2022/09/05 01:17:10;;;;;;;3.77;2.93;;;;;;;17.74;67.56;99797.44;5007176;28;20520;-76
2022/09/05 01:19:44;;;;;;;4.10;3.27;;;;;;;17.77;67.55;99795.34;5003861;28;20453;-76
2022/09/05 01:22:50;;;;;;;3.80;3.10;;;;;;;17.80;67.41;99797.75;5006190;28;20441;-76
2022/09/05 01:25:52;;;;;;;6.88;3.25;;;;;;;17.84;67.56;99793.81;4949733;28;20456;-76
2022/09/05 01:28:35;;;;;;;10.50;4.10;;;;;;;17.83;67.48;99792.16;5000796;28;20209;-75
2022/09/05 01:31:24;;;;;;;3.93;3.30;;;;;;;17.84;67.33;99796.50;5003944;28;20961;-76
2022/09/05 01:33:58;;;;;;;4.63;3.00;;;;;;;17.78;67.41;99804.16;5002841;28;21006;-76
2022/09/05 01:36:40;;;;;;;3.50;3.10;;;;;;;17.69;67.68;99805.84;5003377;28;20235;-76
2022/09/05 01:39:24;;;;;;;3.35;2.90;;;;;;;17.64;67.88;99800.94;4998127;28;20583;-75
2022/09/05 01:42:08;;;;;;;4.28;2.92;;;;;;;17.62;67.99;99800.22;5000992;28;20200;-75
2022/09/05 01:44:59;;;;;;;4.95;3.75;;;;;;;17.62;67.93;99804.69;5001119;28;20269;-76
2022/09/05 01:47:45;;;;;;;2.95;2.50;;;;;;;17.58;68.21;99800.63;5001857;28;20694;-76
2022/09/05 01:50:34;;;;;;;3.38;3.05;;;;;;;17.53;68.38;99805.53;5001139;28;20198;-76
2022/09/05 01:53:24;;;;;;;3.53;2.80;;;;;;;17.52;68.16;99803.84;5000436;28;20517;-76
2022/09/05 01:56:20;;;;;;;4.10;3.15;;;;;;;17.45;68.60;99801.75;5001218;28;20453;-76
2022/09/05 01:58:45;;;;;;;3.38;2.72;;;;;;;17.36;68.86;99810.53;5000588;28;20195;-76
2022/09/05 02:01:52;;;;;;;3.40;2.87;;;;;;;17.35;68.95;99803.53;5003701;28;20209;-76
2022/09/05 02:04:49;;;;;;;3.23;2.93;;;;;;;17.29;68.90;99801.44;5001759;28;20304;-76
2022/09/05 02:07:50;;;;;;;4.32;3.05;;;;;;;17.25;69.18;99795.56;5001865;28;20649;-76
2022/09/05 02:10:24;;;;;;;3.70;3.30;;;;;;;17.30;69.09;99804.91;5001533;28;20194;-76
2022/09/05 02:13:34;;;;;;;4.13;3.50;;;;;;;17.34;68.97;99798.38;5003312;28;20205;-76
2022/09/05 02:16:37;;;;;;;4.97;3.05;;;;;;;17.35;68.80;99798.22;4993316;28;20234;-76
2022/09/05 02:19:09;;;;;;;5.17;2.97;;;;;;;17.34;68.60;99801.88;4974806;28;20655;-75
2022/09/05 02:21:37;;;;;;;4.70;3.83;;;;;;;17.31;68.67;99807.44;5001661;28;21005;-76
2022/09/05 02:24:24;;;;;;;3.75;2.92;;;;;;;17.21;69.03;99806.56;5003966;28;20189;-75
2022/09/05 02:26:55;;;;;;;3.20;2.35;;;;;;;17.10;69.15;99804.03;5006911;28;20323;-73
2022/09/05 02:29:55;;;;;;;3.75;2.90;;;;;;;17.05;69.33;99804.44;5005379;28;20594;-73
2022/09/05 02:32:31;;;;;;;6.28;4.00;;;;;;;17.01;69.29;99803.88;5004393;28;20410;-73
2022/09/05 02:35:06;;;;;;;3.93;3.50;;;;;;;16.98;69.48;99803.28;5000585;28;20193;-73
2022/09/05 02:37:41;;;;;;;3.75;3.10;;;;;;;16.96;69.30;99798.13;5000107;28;20493;-73
2022/09/05 02:40:22;;;;;;;6.80;4.57;;;;;;;16.95;69.51;99807.03;5003668;28;20208;-73
2022/09/05 02:42:50;;;;;;;3.25;2.95;;;;;;;16.95;69.44;99803.53;4999380;28;20616;-73
2022/09/05 02:45:36;;;;;;;4.00;3.10;;;;;;;16.95;69.42;99804.38;4999422;28;20193;-73
2022/09/05 02:48:21;;;;;;;4.32;2.97;;;;;;;16.99;69.40;99799.66;5004175;28;20457;-73
2022/09/05 02:51:25;;;;;;;3.80;3.35;;;;;;;17.06;69.21;99792.00;5004540;28;20635;-73
2022/09/05 02:53:57;;;;;;;3.47;3.00;;;;;;;17.06;69.14;99794.66;4938809;28;20199;-76
2022/09/05 02:57:10;;;;;;;4.43;3.28;;;;;;;17.02;69.32;99794.91;5006301;28;20280;-75
2022/09/05 03:00:07;;;;;;;3.58;3.20;;;;;;;16.97;69.56;99794.47;4901590;29;20395;-76
2022/09/05 03:03:08;;;;;;;4.22;2.97;;;;;;;16.92;69.69;99801.16;4900454;29;20207;-76
2022/09/05 03:05:40;;;;;;;5.40;3.20;;;;;;;16.85;70.03;99798.22;4995981;28;20204;-76
2022/09/05 03:08:44;;;;;;;3.80;3.10;;;;;;;16.79;70.34;99791.59;5001014;28;20230;-76
2022/09/05 03:11:30;;;;;;;6.82;3.45;;;;;;;16.75;70.47;99794.63;4940565;28;20208;-75
2022/09/05 03:14:25;;;;;;;3.75;3.20;;;;;;;16.71;70.67;99791.38;5004335;28;20197;-75
2022/09/05 03:17:14;;;;;;;4.43;3.38;;;;;;;16.74;70.65;99791.16;4949867;28;20328;-75
2022/09/05 03:20:13;;;;;;;4.65;3.40;;;;;;;16.78;70.48;99797.88;5001340;28;20193;-75
2022/09/05 03:23:09;;;;;;;3.67;3.38;;;;;;;16.73;70.70;99788.63;4996084;28;20287;-75
2022/09/05 03:26:12;;;;;;;5.00;3.50;;;;;;;16.68;70.97;99793.47;4996694;28;20198;-75
2022/09/05 03:28:59;;;;;;;3.70;3.40;;;;;;;16.67;70.98;99787.34;4999628;28;20253;-75
2022/09/05 03:31:27;;;;;;;4.10;3.60;;;;;;;16.69;70.98;99787.19;4996738;28;20201;-75
2022/09/05 03:34:26;;;;;;;4.47;3.87;;;;;;;16.70;71.36;99783.59;4995265;28;20871;-75
2022/09/05 03:37:16;;;;;;;4.45;3.60;;;;;;;16.68;71.49;99785.53;5001343;28;20488;-75
2022/09/05 03:40:21;;;;;;;5.60;3.80;;;;;;;16.72;71.37;99786.94;4994238;28;20613;-75
2022/09/05 03:43:16;;;;;;;4.80;2.75;;;;;;;16.77;71.08;99790.09;4990239;28;20303;-75
2022/09/05 03:45:54;;;;;;;4.07;3.55;;;;;;;16.81;70.88;99786.16;4920357;28;21715;-75
2022/09/05 03:48:37;;;;;;;4.95;4.22;;;;;;;16.84;70.80;99785.91;4988546;28;20271;-75
2022/09/05 03:51:30;;;;;;;5.20;2.65;;;;;;;16.87;70.71;99796.25;4995296;28;20219;-75
2022/09/05 03:54:24;;;;;;;4.05;2.40;;;;;;;16.89;70.70;99799.59;4989324;28;20208;-75
2022/09/05 03:57:17;;;;;;;4.63;2.63;;;;;;;16.88;70.41;99787.34;4995712;28;20320;-75
2022/09/05 04:00:03;;;;;;;2.60;2.40;;;;;;;16.82;70.34;99795.81;4999994;28;20208;-75
2022/09/05 04:02:33;;;;;;;2.72;2.42;;;;;;;16.76;70.44;99793.66;5002585;28;20472;-75
2022/09/05 04:05:17;;;;;;;3.45;2.50;;;;;;;16.63;70.61;99798.34;5004978;28;20214;-75
2022/09/05 04:08:27;;;;;;;3.85;2.08;;;;;;;16.47;70.98;99799.66;5001742;28;20485;-75
2022/09/05 04:11:02;;;;;;;2.97;2.35;;;;;;;16.39;71.07;99807.44;5001822;28;20712;-75
2022/09/05 04:13:57;;;;;;;4.07;2.50;;;;;;;16.32;71.11;99809.75;4983857;28;20268;-75
2022/09/05 04:16:31;;;;;;;2.92;2.63;;;;;;;16.29;71.14;99806.53;4999141;28;20221;-75
2022/09/05 04:19:09;;;;;;;2.83;2.63;;;;;;;16.30;71.08;99808.19;5002220;28;20209;-75
2022/09/05 04:22:12;;;;;;;3.92;3.58;;;;;;;16.32;70.94;99815.03;5000390;28;20608;-75
2022/09/05 04:24:50;;;;;;;3.90;3.28;;;;;;;16.37;70.76;99814.66;4926992;29;20226;-75
2022/09/05 04:27:37;;;;;;;5.13;3.00;;;;;;;16.41;70.66;99812.59;4991848;28;20230;-75
2022/09/05 04:30:18;;;;;;;4.78;3.10;;;;;;;16.41;70.69;99808.13;4999936;28;20572;-76
2022/09/05 04:33:00;;;;;;;3.70;3.00;;;;;;;16.43;70.77;99814.13;4999924;28;20202;-75
2022/09/05 04:35:36;;;;;;;4.45;2.90;;;;;;;16.46;70.73;99819.19;5004108;28;20215;-75
2022/09/05 04:38:16;;;;;;;4.13;3.50;;;;;;;16.50;70.76;99820.63;5000364;28;20224;-75
2022/09/05 04:41:11;;;;;;;5.38;3.67;;;;;;;16.50;70.60;99820.63;4998632;28;20218;-75
2022/09/05 04:43:49;;;;;;;5.82;3.45;;;;;;;16.50;70.58;99828.56;4956304;28;20245;-75
2022/09/05 04:46:21;;;;;;;3.92;3.22;;;;;;;16.49;70.66;99818.91;4979075;28;20205;-75
2022/09/05 04:49:04;;;;;;;4.43;3.75;;;;;;;16.49;70.66;99834.81;4965916;28;20204;-75
2022/09/05 04:52:01;;;;;;;5.60;3.35;;;;;;;16.42;71.06;99828.38;4977385;28;20234;-76
2022/09/05 04:54:34;;;;;;;4.95;4.10;;;;;;;16.36;71.16;99835.03;4978933;28;20231;-76
2022/09/05 04:57:13;;;;;;;5.43;4.60;;;;;;;16.32;71.42;99835.41;4978301;28;20868;-75
2022/09/05 04:59:57;;;;;;;5.82;4.85;;;;;;;16.29;71.46;99848.94;4975955;28;20209;-75
2022/09/05 05:02:35;;;;;;;6.95;5.55;;;;;;;16.25;71.62;99848.31;4974989;28;20290;-76
2022/09/05 05:05:05;;;;;;;5.80;5.05;;;;;;;16.25;71.64;99853.63;4978634;28;20211;-75
2022/09/05 05:07:39;;;;;;;10.80;5.25;;;;;;;16.25;71.79;99861.56;4969752;28;20525;-75
2022/09/05 05:10:10;;;;;;;6.53;4.25;;;;;;;16.28;71.69;99868.44;4972466;28;20801;-75
2022/09/05 05:12:54;;;;;;;6.85;5.53;;;;;;;16.29;71.58;99864.84;4968635;28;20593;-76
2022/09/05 05:15:23;;;;;;;6.25;4.75;;;;;;;16.30;71.84;99867.34;4973270;28;20567;-76
2022/09/05 05:17:59;;;;;;;6.10;4.88;;;;;;;16.36;71.70;99871.28;4975020;28;20287;-76
2022/09/05 05:20:31;;;;;;;5.35;4.82;;;;;;;16.42;71.44;99876.09;4975631;28;20206;-76
2022/09/05 05:23:07;;;;;;;5.47;4.60;;;;;;;16.49;71.30;99877.25;4974444;28;20302;-76
2022/09/05 05:25:53;;;;;;;5.38;4.45;;;;;;;16.56;71.06;99877.59;4974876;28;20272;-76
2022/09/05 05:28:40;;;;;;;6.72;4.90;;;;;;;16.59;70.88;99874.69;4976659;28;20670;-76
2022/09/05 05:31:14;;;;;;;4.70;4.00;;;;;;;16.62;70.83;99882.38;4975982;28;20203;-75
2022/09/05 05:33:40;;;;;;;6.03;4.75;;;;;;;16.66;70.80;99883.81;4976706;28;20197;-76
2022/09/05 05:36:15;;;;;;;7.78;4.60;;;;;;;16.74;70.71;99896.38;4973444;28;20238;-75
2022/09/05 05:39:07;;;;;;;8.75;4.80;;;;;;;16.80;70.38;99899.41;4974005;28;20603;-75
2022/09/05 05:41:43;;;;;;;5.07;4.63;;;;;;;16.84;70.34;99904.47;4963895;28;20216;-75
2022/09/05 05:44:19;;;;;;;4.68;4.00;;;;;;;16.85;70.33;99903.47;4969965;28;20835;-76
2022/09/05 05:47:15;;;;;;;5.13;3.70;;;;;;;16.86;70.19;99891.91;4957257;28;20224;-75
2022/09/05 05:49:48;;;;;;;5.28;4.05;;;;;;;16.85;70.05;99893.72;4975127;28;20375;-75
2022/09/05 05:52:22;;;;;;;6.28;3.67;;;;;;;16.88;70.15;99892.63;4976128;28;20214;-75
2022/09/05 05:54:56;;;;;;;6.25;4.50;;;;;;;16.91;70.13;99892.34;4960831;28;20764;-75
2022/09/05 05:57:31;;;;;;;6.65;4.55;;;;;;;17.09;69.81;99897.88;4973222;28;20267;-76
2022/09/05 06:00:05;;;;;;;7.15;3.78;;;;;;;17.72;68.71;99898.53;4976733;28;20889;-75
2022/09/05 06:02:50;;;;;;;9.05;4.30;;;;;;;18.53;66.23;99887.72;4977339;28;20203;-76
2022/09/05 06:05:55;;;;;;;6.60;4.30;;;;;;;19.23;64.53;99891.75;4975230;28;20206;-75
2022/09/05 06:08:42;;;;;;;5.67;5.03;;;;;;;19.78;62.73;99882.13;4977957;28;20862;-75
2022/09/05 06:11:41;;;;;;;7.67;4.37;;;;;;;19.75;61.94;99890.41;4980614;28;20474;-76
2022/09/05 06:14:26;;;;;;;4.83;4.10;;;;;;;19.84;61.64;99879.66;4975974;28;20527;-76
2022/09/05 06:17:09;;;;;;;6.60;4.60;;;;;;;20.20;60.93;99886.84;4978301;28;21008;-75
2022/09/05 06:19:53;;;;;;;9.10;5.20;;;;;;;20.65;59.73;99891.25;4977997;28;20477;-76
2022/09/05 06:22:39;;;;;;;5.97;4.67;;;;;;;21.15;58.75;99890.59;4980249;28;20450;-76
2022/09/05 06:25:26;;;;;;;6.43;5.67;;;;;;;21.64;57.12;99889.00;4972597;28;20838;-76
2022/09/05 06:28:10;;;;;;;6.60;5.47;;;;;;;21.50;56.86;99880.75;4978341;28;20461;-75
2022/09/05 06:30:44;;;;;;;6.43;5.43;;;;;;;21.06;57.92;99886.19;4978157;28;20898;-75
2022/09/05 06:33:44;;;;;;;8.17;5.60;;;;;;;20.71;59.07;99888.81;4976837;28;20551;-76
2022/09/05 06:36:44;;;;;;;8.83;5.73;;;;;;;20.41;60.13;99899.88;4973192;28;20461;-76
2022/09/05 06:39:17;;;;;;;9.30;6.03;;;;;;;20.21;60.39;99899.22;4974501;28;20441;-75
2022/09/05 06:42:02;;;;;;;7.67;6.00;;;;;;;19.99;61.19;99904.00;4972203;28;20456;-76
2022/09/05 06:44:58;;;;;;;9.07;6.73;;;;;;;19.84;61.67;99909.00;4972495;28;21022;-75
2022/09/05 06:47:24;;;;;;;6.00;5.40;;;;;;;19.73;62.13;99905.72;4976842;28;20559;-76
2022/09/05 06:50:18;;;;;;;6.77;5.87;;;;;;;19.65;62.29;99896.59;4975502;28;20527;-76
2022/09/05 06:53:08;;;;;;;8.07;6.07;;;;;;;19.62;62.41;99904.88;4978236;28;20204;-75
2022/09/05 06:55:46;;;;;;;10.20;6.10;;;;;;;19.62;62.82;99907.56;4977331;28;20437;-75
2022/09/05 06:58:56;;;;;;;6.97;6.27;;;;;;;19.63;63.15;99903.91;4978704;28;20734;-76
2022/09/05 07:01:29;;;;;;;5.90;5.33;;;;;;;19.59;63.55;99915.84;4969915;28;20425;-75
2022/09/05 07:04:22;;;;;;;11.27;8.80;;;;;;;19.58;64.11;99926.66;4973014;28;20435;-75
2022/09/05 07:07:08;;;;;;;8.37;6.70;;;;;;;19.62;64.11;99931.53;4974314;28;20986;-77
2022/09/05 07:09:53;;;;;;;6.73;5.80;;;;;;;19.68;64.51;99927.47;4975277;28;20443;-75
2022/09/05 07:12:27;;;;;;;8.27;6.90;;;;;;;19.77;64.30;99931.94;4978168;28;20666;-75
2022/09/05 07:15:08;;;;;;;8.53;6.70;;;;;;;19.92;64.46;99934.91;4965360;28;20444;-75
2022/09/05 07:17:46;;;;;;;8.43;7.13;;;;;;;19.98;64.21;99937.00;4981867;28;20530;-75
2022/09/05 07:20:20;;;;;;;9.87;6.50;;;;;;;20.09;64.23;99935.91;4975188;28;20618;-76
2022/09/05 07:22:54;;;;;;;7.27;6.13;;;;;;;20.19;64.06;99927.84;4969927;28;20436;-76
2022/09/05 07:25:27;;;;;;;8.10;6.33;;;;;;;20.32;63.46;99922.97;4980644;28;20429;-76
2022/09/05 07:27:59;;;;;;;8.77;6.97;;;;;;;20.43;62.96;99920.06;4974774;28;20451;-75
2022/09/05 07:30:25;;;;;;;8.23;5.47;;;;;;;20.92;61.92;99917.81;4977802;28;20575;-75
2022/09/05 07:32:54;;;;;;;6.32;5.63;;;;;;;21.82;59.57;99918.31;4957865;28;20602;-76
2022/09/05 07:35:25;;;;;;;7.40;5.43;;;;;;;22.77;56.70;99922.44;4959579;28;20190;-75
2022/09/05 07:38:03;;;;;;;5.80;4.87;;;;;;;23.75;54.13;99914.16;4972230;28;20492;-75
2022/09/05 07:40:34;;;;;;;7.80;5.10;;;;;;;24.65;51.59;99910.88;4981078;28;20515;-75
2022/09/05 07:43:11;;;;;;;4.13;3.73;;;;;;;25.41;49.38;99916.19;4971860;28;20450;-76
2022/09/05 07:45:44;;;;;;;5.30;3.90;;;;;;;26.09;47.57;99911.47;4970083;28;21142;-76
2022/09/05 07:48:18;;;;;;;4.90;4.50;;;;;;;26.59;46.09;99912.38;4976433;28;20453;-76
2022/09/05 07:50:56;;;;;;;5.57;3.33;;;;;;;26.89;44.66;99916.53;4973014;28;20656;-76
2022/09/05 07:53:24;;;;;;;6.53;4.00;;;;;;;26.96;44.46;99905.81;4970365;28;20497;-76
2022/09/05 07:55:55;;;;;;;3.67;3.37;;;;;;;27.00;43.89;99900.84;4975146;28;20436;-76
2022/09/05 07:58:48;;;;;;;5.27;3.93;;;;;;;27.10;43.74;99912.94;4978032;28;21156;-76
2022/09/05 08:01:16;;;;;;;3.53;3.23;;;;;;;27.45;43.23;99915.66;4970472;28;20452;-76
2022/09/05 08:03:42;;;;;;;7.23;4.30;;;;;;;27.64;41.91;99913.28;4974389;28;20460;-76
2022/09/05 08:06:21;;;;;;;3.83;3.50;;;;;;;28.12;40.99;99915.94;4977438;28;20462;-77
2022/09/05 08:08:55;;;;;;;4.07;3.50;;;;;;;28.61;40.16;99909.38;4994795;28;21034;-76
2022/09/05 08:11:24;;;;;;;3.47;3.17;;;;;;;29.18;39.00;99916.00;4994308;28;20846;-76
2022/09/05 08:14:05;;;;;;;4.87;3.33;;;;;;;29.66;38.22;99912.13;4997900;28;20479;-77
2022/09/05 08:16:33;;;;;;;4.00;3.70;;;;;;;29.76;38.19;99913.34;5001659;28;20461;-77
2022/09/05 08:19:07;;;;;;;7.80;3.53;;;;;;;29.96;37.55;99915.94;4998216;28;20456;-75
2022/09/05 08:21:41;;;;;;;5.03;3.80;;;;;;;30.23;36.94;99910.38;4995035;28;20460;-75
2022/09/05 08:24:22;;;;;;;4.47;4.07;;;;;;;30.61;36.24;99912.19;4992322;28;20450;-75
2022/09/05 08:27:00;;;;;;;5.23;3.70;;;;;;;30.93;35.33;99907.56;4993656;28;20468;-75
2022/09/05 08:29:32;;;;;;;4.37;3.97;;;;;;;31.30;34.81;99907.59;4987744;28;20441;-76
2022/09/05 08:32:07;;;;;;;3.60;3.20;;;;;;;31.53;33.96;99906.91;4995110;28;20437;-75
2022/09/05 08:34:48;;;;;;;3.77;3.37;;;;;;;31.78;33.68;99904.09;4995852;28;20949;-75
2022/09/05 08:37:24;;;;;;;3.40;2.90;;;;;;;31.90;33.49;99902.25;4992748;28;20474;-75
2022/09/05 08:40:01;;;;;;;5.67;2.70;;;;;;;31.87;33.82;99900.00;4994417;28;20832;-75
2022/09/05 08:42:37;;;;;;;4.40;3.90;;;;;;;31.72;33.55;99900.41;4988788;28;20743;-76
2022/09/05 08:45:26;;;;;;;4.43;3.10;;;;;;;31.11;34.66;99903.19;4999080;28;20433;-75
2022/09/05 08:48:14;;;;;;;7.37;3.30;;;;;;;30.67;35.27;99903.16;4992311;28;20454;-75
2022/09/05 08:51:15;;;;;;;3.33;2.67;;;;;;;30.51;34.94;99901.81;4994588;28;20450;-75
2022/09/05 08:53:46;;;;;;;2.60;2.40;;;;;;;30.37;35.07;99908.41;4998326;28;20897;-75
2022/09/05 08:56:48;;;;;;;3.87;2.80;;;;;;;30.02;35.30;99913.41;5002919;28;20941;-75
2022/09/05 08:59:38;;;;;;;3.13;2.83;;;;;;;29.72;36.17;99928.34;4994959;28;20446;-75
2022/09/05 09:02:14;;;;;;;5.57;3.40;;;;;;;29.71;36.07;99932.09;4996190;28;20521;-75
2022/09/05 09:04:51;;;;;;;3.50;2.90;;;;;;;29.61;36.47;99928.97;4979287;28;20446;-75
2022/09/05 09:07:34;;;;;;;2.60;2.40;;;;;;;29.37;36.59;99924.28;4995894;28;20484;-75
2022/09/05 09:10:41;;;;;;;2.90;2.70;;;;;;;29.12;36.80;99927.66;4995656;28;20477;-75
2022/09/05 09:13:19;;;;;;;2.50;2.30;;;;;;;28.90;37.39;99924.34;4908118;28;21215;-75
2022/09/05 09:16:03;;;;;;;3.27;2.97;;;;;;;28.97;37.70;99925.16;4979598;28;20430;-75
2022/09/05 09:19:02;;;;;;;3.07;2.73;;;;;;;28.97;38.30;99914.31;4997512;28;21305;-75
2022/09/05 09:21:38;;;;;;;3.20;2.90;;;;;;;28.81;38.67;99918.31;4993635;28;20989;-75
2022/09/05 09:24:28;;;;;;;3.97;2.43;;;;;;;28.75;39.12;99921.00;4994416;28;21119;-75
2022/09/05 09:27:12;;;;;;;4.10;2.60;;;;;;;28.79;39.00;99912.28;4994214;28;20564;-75
2022/09/05 09:29:41;;;;;;;4.47;2.83;;;;;;;28.82;38.54;99909.16;4996790;28;20445;-75
2022/09/05 09:32:23;;;;;;;2.90;2.70;;;;;;;28.86;38.71;99909.56;4994031;28;20535;-75
2022/09/05 09:34:54;;;;;;;5.63;2.90;;;;;;;28.89;38.48;99907.28;5000039;28;20456;-75
2022/09/05 09:37:49;;;;;;;3.80;3.00;;;;;;;28.96;38.22;99891.03;4997400;28;20474;-75
2022/09/05 09:40:27;;;;;;;3.27;2.97;;;;;;;29.07;38.07;99892.31;5000317;28;20812;-75
2022/09/05 09:43:01;;;;;;;3.10;2.80;;;;;;;29.10;38.23;99891.88;4999701;28;20449;-75
2022/09/05 09:45:40;;;;;;;3.07;2.20;;;;;;;29.06;38.24;99883.38;4981396;28;20507;-75
2022/09/05 09:48:08;;;;;;;4.03;2.50;;;;;;;29.08;38.23;99877.72;4997281;28;20754;-75
2022/09/05 09:51:05;;;;;;;3.10;2.40;;;;;;;29.20;37.75;99867.94;4997771;28;21399;-75
2022/09/05 09:54:15;;;;;;;2.03;1.83;;;;;;;29.31;37.18;99869.97;4992951;28;20531;-75
2022/09/05 09:57:02;;;;;;;2.70;2.30;;;;;;;29.43;37.09;99867.41;4999762;28;20476;-75
2022/09/05 09:59:52;;;;;;;2.37;2.17;;;;;;;29.52;36.59;99866.16;4981536;28;20449;-75
2022/09/05 10:02:45;;;;;;;2.60;1.87;;;;;;;29.47;36.25;99852.41;5001444;28;20669;-75
2022/09/05 10:05:36;;;;;;;3.67;2.00;;;;;;;29.66;36.34;99847.16;4999213;28;20445;-75
2022/09/05 10:08:17;;;;;;;2.70;1.57;;;;;;;29.83;35.93;99845.59;4997898;28;20859;-75
2022/09/05 10:10:56;;;;;;;1.80;1.60;;;;;;;30.04;35.92;99840.88;5001633;28;20539;-73
2022/09/05 10:14:05;;;;;;;3.50;2.00;;;;;;;30.08;35.46;99834.78;4997016;28;21005;-73
2022/09/05 10:16:52;;;;;;;2.30;1.60;;;;;;;29.94;35.58;99833.22;4998423;28;20877;-73
2022/09/05 10:19:43;;;;;;;2.60;2.00;;;;;;;29.85;35.47;99829.13;4998192;28;20990;-74
2022/09/05 10:22:23;;;;;;;2.10;1.47;;;;;;;29.86;35.76;99825.38;4997725;28;20950;-75
2022/09/05 10:25:09;;;;;;;1.80;1.70;;;;;;;29.95;35.56;99822.19;4997765;28;20821;-74
2022/09/05 10:27:49;;;;;;;1.97;1.80;;;;;;;30.27;35.25;99813.22;4999644;28;20457;-74
2022/09/05 10:30:22;;;;;;;1.90;1.63;;;;;;;30.41;34.42;99809.38;4995445;28;20444;-74
2022/09/05 10:33:30;;;;;;;2.47;1.73;;;;;;;30.31;34.49;99809.03;5001516;28;20780;-74
2022/09/05 10:36:15;;;;;;;2.20;1.83;;;;;;;30.21;34.94;99804.06;4993453;28;20975;-74
2022/09/05 10:38:56;;;;;;;2.53;2.00;;;;;;;30.10;34.99;99802.91;4993161;28;20458;-74
2022/09/05 10:41:41;;;;;;;2.43;2.20;;;;;;;29.94;35.67;99801.56;4997922;28;20468;-74
2022/09/05 10:44:10;;;;;;;3.33;1.97;;;;;;;29.86;35.87;99790.16;4994183;28;20445;-74
2022/09/05 10:47:04;;;;;;;2.33;2.13;;;;;;;30.11;35.31;99793.75;4980052;28;20442;-74
2022/09/05 10:49:37;;;;;;;2.70;1.90;;;;;;;30.33;35.41;99779.84;4997718;28;20451;-74
2022/09/05 10:52:33;;;;;;;2.33;2.13;;;;;;;30.46;34.83;99768.88;4994077;28;20496;-73
2022/09/05 10:54:58;;;;;;;5.30;2.30;;;;;;;30.74;34.91;99764.81;5000401;28;20531;-74
2022/09/05 10:57:32;;;;;;;4.00;1.90;;;;;;;30.90;34.64;99763.41;4988195;28;20720;-74
2022/09/05 11:00:08;;;;;;;2.30;2.10;;;;;;;30.92;34.53;99750.44;4975109;28;20716;-74
2022/09/05 11:02:40;;;;;;;2.67;2.30;;;;;;;30.88;34.73;99755.50;4998620;28;20450;-74
2022/09/05 11:05:23;;;;;;;2.50;2.03;;;;;;;30.72;33.92;99759.59;5000172;28;20445;-74
2022/09/05 11:08:04;;;;;;;2.53;2.17;;;;;;;30.48;34.51;99755.91;4992319;28;20473;-74
2022/09/05 11:10:46;;;;;;;1.53;1.43;;;;;;;30.39;35.13;99751.84;4998247;28;20455;-74
2022/09/05 11:13:25;;;;;;;2.40;2.00;;;;;;;30.33;34.90;99756.28;4987746;28;20465;-74
2022/09/05 11:16:18;;;;;;;4.57;2.20;;;;;;;30.28;35.03;99749.88;4995075;28;20438;-74
2022/09/05 11:18:54;;;;;;;2.13;1.70;;;;;;;30.20;35.79;99745.53;5000739;28;20449;-75
2022/09/05 11:21:51;;;;;;;3.57;1.90;;;;;;;30.23;35.91;99744.28;5001994;28;20445;-74
2022/09/05 11:24:39;;;;;;;2.93;2.70;;;;;;;30.18;36.33;99747.63;4994682;28;20431;-74
2022/09/05 11:27:28;;;;;;;3.40;2.40;;;;;;;30.20;36.48;99746.34;5001307;28;21155;-74
2022/09/05 11:30:18;;;;;;;2.60;1.87;;;;;;;30.11;37.02;99738.72;4996146;28;20435;-74
2022/09/05 11:32:46;;;;;;;3.10;2.03;;;;;;;30.00;37.23;99742.97;4996703;28;21120;-74
2022/09/05 11:35:26;;;;;;;2.80;2.10;;;;;;;29.99;37.30;99727.78;4988807;28;20463;-74
2022/09/05 11:37:57;;;;;;;4.00;1.90;;;;;;;30.07;37.19;99735.63;4993335;28;20513;-74
2022/09/05 11:40:38;;;;;;;3.75;2.00;;;;;;;30.13;36.45;99732.03;4996410;28;20998;-74
2022/09/05 11:43:28;;;;;;;4.07;1.97;;;;;;;30.17;36.61;99740.53;4990403;28;20287;-74
2022/09/05 11:46:14;;;;;;;6.03;2.47;;;;;;;30.19;36.15;99733.84;4996727;28;20479;-74
2022/09/05 11:49:00;;;;;;;4.00;1.90;;;;;;;30.23;36.17;99728.03;4997013;28;20514;-74
2022/09/05 11:51:53;;;;;;;2.20;1.90;;;;;;;30.22;35.45;99721.75;4995735;28;20539;-74
2022/09/05 11:54:54;;;;;;;6.00;2.93;;;;;;;30.13;35.83;99717.66;4996856;28;21198;-74
2022/09/05 11:57:47;;;;;;;1.97;1.67;;;;;;;30.31;35.79;99714.19;4953743;28;20486;-74
2022/09/05 12:00:31;;;;;;;2.13;1.93;;;;;;;30.47;35.48;99719.00;4998010;28;20450;-74
2022/09/05 12:03:33;;;;;;;2.80;2.20;;;;;;;30.57;35.31;99715.75;4996908;28;21084;-74
2022/09/05 12:06:28;;;;;;;2.80;2.00;;;;;;;30.69;35.46;99711.25;4994385;28;20546;-74
2022/09/05 12:09:28;;;;;;;4.50;2.17;;;;;;;30.74;34.54;99697.84;4967231;28;20530;-74
2022/09/05 12:12:06;;;;;;;9.70;2.13;;;;;;;30.72;34.53;99693.72;4997773;28;20459;-74
2022/09/05 12:14:40;;;;;;;4.60;1.70;;;;;;;30.66;33.56;99690.03;4979493;28;20451;-75
2022/09/05 12:17:30;;;;;;;2.90;1.87;;;;;;;30.55;33.36;99686.19;4996620;28;20521;-74
2022/09/05 12:20:07;;;;;;;4.87;1.90;;;;;;;30.42;33.37;99678.19;4999184;28;21016;-75
2022/09/05 12:22:36;;;;;;;2.60;2.40;;;;;;;30.32;34.05;99677.88;4995209;28;21034;-75
2022/09/05 12:25:11;;;;;;;2.80;2.30;;;;;;;30.14;34.83;99665.97;5000250;28;20472;-75
2022/09/05 12:27:38;;;;;;;2.30;2.07;;;;;;;29.92;35.39;99679.09;4998321;28;20488;-75
2022/09/05 12:30:06;;;;;;;3.10;2.37;;;;;;;29.84;34.59;99678.53;5000675;28;20520;-74
2022/09/05 12:32:33;;;;;;;2.53;1.90;;;;;;;29.78;33.95;99670.25;4989687;28;20920;-75
2022/09/05 12:35:01;;;;;;;3.37;2.43;;;;;;;29.83;33.82;99674.16;4985515;28;21073;-74
2022/09/05 12:37:39;;;;;;;2.50;1.60;;;;;;;29.92;33.46;99668.25;4987795;28;20500;-74
2022/09/05 12:40:16;;;;;;;1.90;1.70;;;;;;;30.01;32.80;99671.50;4990228;28;21047;-74
2022/09/05 12:42:52;;;;;;;4.30;1.73;;;;;;;30.08;32.04;99666.84;4990580;28;20467;-74
2022/09/05 12:45:17;;;;;;;2.03;1.83;;;;;;;30.06;31.11;99668.13;4986271;28;20463;-74
2022/09/05 12:47:49;;;;;;;2.83;1.83;;;;;;;30.00;31.20;99672.53;4997933;28;20876;-75
2022/09/05 12:50:16;;;;;;;4.13;1.83;;;;;;;30.03;30.81;99655.88;4982034;28;20217;-74